Time;durP1;ratioP1;P1;durP2;ratioP2;P2;SDS_P1;SDS_P2;PMS_P1;PMS_P2;Temp;Humidity;BMP_temperature;BMP_pressure;BME280_temperature;BME280_humidity;BME280_pressure;Samples;Min_cycle;Max_cycle;Signal;HPM_P1;HPM_P2
2022/09/27 00:01:10;;;;;;;9.70;7.70;;;;;;;11.60;89.85;98529.60;105311;1274;24214;-66
2022/09/27 00:03:37;;;;;;;8.90;7.30;;;;;;;11.60;89.88;98526.38;109440;1274;22475;-66
2022/09/27 00:06:07;;;;;;;;;;;;;;;11.58;89.93;98524.88;109464;1274;22498;-69
2022/09/27 00:08:34;;;;;;;8.40;6.50;;;;;;;11.56;90.10;98516.87;109444;1274;23497;-68
2022/09/27 00:11:06;;;;;;;8.10;6.80;;;;;;;11.56;90.35;98510.05;109437;1274;22665;-68
2022/09/27 00:13:33;;;;;;;10.20;7.10;;;;;;;11.55;90.09;98504.16;109430;1274;23195;-68
2022/09/27 00:16:00;;;;;;;;;;;;;;;11.54;90.26;98501.08;109449;1274;22523;-68
2022/09/27 00:18:27;;;;;;;7.90;6.80;;;;;;;11.54;90.43;98499.66;109339;1274;22484;-67
2022/09/27 00:20:53;;;;;;;;;;;;;;;11.50;90.17;98501.61;109446;1274;22617;-68
2022/09/27 00:23:20;;;;;;;9.10;6.90;;;;;;;11.48;90.57;98499.02;109440;1274;22442;-68
2022/09/27 00:25:56;;;;;;;;;;;;;;;11.46;90.80;98497.08;109468;1274;22516;-68
2022/09/27 00:28:24;;;;;;;15.40;6.80;;;;;;;11.45;91.02;98496.75;109446;1274;22452;-68
2022/09/27 00:30:50;;;;;;;9.50;6.70;;;;;;;11.46;91.19;98489.27;109111;1274;22487;-68
2022/09/27 00:33:17;;;;;;;7.70;6.70;;;;;;;11.47;91.07;98489.37;109441;1274;23119;-68
2022/09/27 00:35:44;;;;;;;;;;;;;;;11.49;91.25;98480.52;109447;1274;22567;-64
2022/09/27 00:38:11;;;;;;;8.30;6.70;;;;;;;11.49;91.08;98471.13;109350;1274;22421;-64
2022/09/27 00:40:38;;;;;;;13.10;7.70;;;;;;;11.49;91.31;98465.30;109364;1274;22488;-64
2022/09/27 00:43:14;;;;;;;8.50;7.60;;;;;;;11.46;91.28;98465.21;109518;1274;22446;-64
2022/09/27 00:45:40;;;;;;;9.80;7.20;;;;;;;11.42;91.28;98464.81;109449;1274;22470;-64
2022/09/27 00:48:09;;;;;;;;;;;;;;;11.42;91.43;98467.27;109448;1274;22747;-64
2022/09/27 00:50:36;;;;;;;10.20;6.80;;;;;;;11.41;91.47;98466.89;109339;1274;22471;-64
2022/09/27 00:53:03;;;;;;;10.60;7.40;;;;;;;11.41;91.81;98461.38;109372;1274;22617;-64
2022/09/27 00:55:37;;;;;;;8.30;7.30;;;;;;;11.42;91.83;98452.48;109365;1273;22482;-64
2022/09/27 00:58:03;;;;;;;9.40;7.30;;;;;;;11.43;92.05;98447.08;109353;1274;22291;-64
2022/09/27 01:00:30;;;;;;;10.00;7.50;;;;;;;11.43;91.81;98447.02;109232;1274;22461;-64
2022/09/27 01:02:57;;;;;;;;;;;;;;;11.44;91.97;98443.09;109377;1274;22476;-64
2022/09/27 01:05:26;;;;;;;9.60;7.70;;;;;;;11.44;92.10;98438.45;109453;1274;22462;-64
2022/09/27 01:07:58;;;;;;;10.80;7.40;;;;;;;11.39;92.03;98441.56;109349;1274;22546;-64
2022/09/27 01:10:32;;;;;;;13.30;6.80;;;;;;;11.34;92.03;98442.27;109404;1274;22626;-65
2022/09/27 01:13:35;;;;;;;10.40;7.90;;;;;;;11.32;92.48;98442.52;109261;1275;22482;-65
2022/09/27 01:16:09;;;;;;;11.50;7.60;;;;;;;11.30;92.60;98433.14;108895;1279;22329;-65
2022/09/27 01:19:03;;;;;;;11.60;7.40;;;;;;;11.28;92.90;98429.55;108669;1279;22469;-65
2022/09/27 01:21:48;;;;;;;9.20;8.20;;;;;;;11.26;92.99;98424.79;108887;1280;22473;-65
2022/09/27 01:25:02;;;;;;;9.40;8.10;;;;;;;11.25;93.15;98415.77;108881;1279;22664;-65
2022/09/27 01:28:02;;;;;;;11.80;8.10;;;;;;;11.25;93.60;98410.70;108335;1286;22617;-65
2022/09/27 01:30:47;;;;;;;11.80;9.30;;;;;;;11.26;93.70;98404.12;108310;1285;22661;-65
2022/09/27 01:33:39;;;;;;;10.00;9.00;;;;;;;11.27;94.01;98403.67;108170;1286;22382;-65
2022/09/27 01:36:20;;;;;;;13.90;8.40;;;;;;;11.30;93.93;98398.02;108272;1284;22972;-65
2022/09/27 01:39:01;;;;;;;13.80;9.40;;;;;;;11.29;93.91;98399.23;108205;1286;22488;-64
2022/09/27 01:42:00;;;;;;;10.70;9.00;;;;;;;11.31;93.92;98399.93;108412;1284;22469;-65
2022/09/27 01:44:53;;;;;;;12.60;9.20;;;;;;;11.29;94.30;98398.58;108400;1284;22509;-64
2022/09/27 01:47:23;;;;;;;13.20;9.60;;;;;;;11.28;94.33;98394.94;108362;1284;22986;-64
2022/09/27 01:50:04;;;;;;;13.20;10.20;;;;;;;11.29;94.51;98390.08;108337;1286;22589;-64
2022/09/27 01:52:36;;;;;;;11.90;9.70;;;;;;;11.31;94.36;98385.73;108497;1280;23554;-64
2022/09/27 01:55:05;;;;;;;13.70;10.30;;;;;;;11.32;94.50;98380.27;108747;1280;23945;-65
2022/09/27 01:58:13;;;;;;;15.90;10.50;;;;;;;11.32;94.47;98368.94;108597;1280;22485;-65
2022/09/27 02:00:42;;;;;;;12.70;10.40;;;;;;;11.31;94.75;98370.75;108708;1280;22451;-64
2022/09/27 02:03:20;;;;;;;13.10;10.40;;;;;;;11.29;94.68;98366.63;108718;1275;22287;-66
2022/09/27 02:06:16;;;;;;;12.40;10.40;;;;;;;11.28;94.55;98372.30;109337;1273;22723;-66
2022/09/27 02:09:03;;;;;;;13.80;12.00;;;;;;;11.25;94.83;98370.98;109339;1274;22465;-66
2022/09/27 02:11:45;;;;;;;15.10;12.00;;;;;;;11.23;94.92;98371.23;109352;1274;22497;-66
2022/09/27 02:14:36;;;;;;;16.50;11.30;;;;;;;11.24;95.24;98370.18;109293;1274;22477;-64
2022/09/27 02:17:50;;;;;;;16.80;13.40;;;;;;;11.25;95.24;98364.91;109338;1274;22525;-72
2022/09/27 02:20:30;;;;;;;18.90;14.50;;;;;;;11.22;95.17;98362.41;108647;1281;22501;-73
2022/09/27 02:23:02;;;;;;;18.80;14.70;;;;;;;11.21;95.41;98365.64;108744;1281;22435;-73
2022/09/27 02:25:35;;;;;;;17.80;13.30;;;;;;;11.21;95.45;98361.45;108863;1280;22668;-73
2022/09/27 02:28:26;;;;;;;18.80;13.40;;;;;;;11.21;95.84;98358.23;108678;1280;22497;-73
2022/09/27 02:30:53;;;;;;;20.80;15.80;;;;;;;11.20;95.82;98352.23;108581;1281;22541;-74
2022/09/27 02:33:29;;;;;;;17.70;14.20;;;;;;;11.19;95.70;98351.53;108561;1283;22405;-72
2022/09/27 02:35:56;;;;;;;21.70;14.70;;;;;;;11.20;95.92;98348.75;108482;1281;22733;-73
2022/09/27 02:38:22;;;;;;;;;;;;;;;11.21;96.34;98349.23;108945;1280;22510;-66
2022/09/27 02:40:49;;;;;;;24.90;16.10;;;;;;;11.22;96.46;98348.45;108748;1280;22639;-65
2022/09/27 02:43:18;;;;;;;18.80;13.40;;;;;;;11.23;96.68;98347.67;108664;1280;22599;-65
2022/09/27 02:45:44;;;;;;;19.20;15.10;;;;;;;11.25;96.79;98347.54;108518;1282;23103;-65
2022/09/27 02:48:14;;;;;;;19.10;15.80;;;;;;;11.25;96.77;98335.79;108684;1280;22417;-65
2022/09/27 02:51:03;;;;;;;19.80;15.40;;;;;;;11.26;96.67;98332.14;108457;1282;22445;-65
2022/09/27 02:54:24;;;;;;;20.60;15.70;;;;;;;11.25;96.79;98328.30;108635;1280;22450;-65
2022/09/27 02:57:17;;;;;;;19.40;15.90;;;;;;;11.24;96.70;98322.73;108245;1282;24445;-64
2022/09/27 03:00:07;;;;;;;21.90;17.80;;;;;;;11.23;96.94;98318.13;108544;1282;22772;-64
2022/09/27 03:03:08;;;;;;;24.80;16.80;;;;;;;11.22;97.13;98322.45;108521;1282;22452;-65
2022/09/27 03:06:01;;;;;;;22.10;16.90;;;;;;;11.22;97.06;98326.96;108541;1282;22460;-64
2022/09/27 03:08:28;;;;;;;24.50;18.80;;;;;;;11.23;97.31;98328.32;108376;1282;22446;-66
2022/09/27 03:10:55;;;;;;;27.60;18.90;;;;;;;11.23;97.25;98323.84;108322;1282;22547;-66
2022/09/27 03:13:22;;;;;;;27.70;18.60;;;;;;;11.22;97.45;98316.93;108490;1284;22500;-68
2022/09/27 03:15:49;;;;;;;25.50;19.70;;;;;;;11.23;97.45;98320.42;108409;1284;23107;-68
2022/09/27 03:18:34;;;;;;;30.50;19.40;;;;;;;11.23;97.48;98309.88;108545;1282;23276;-68
2022/09/27 03:21:19;;;;;;;25.70;19.30;;;;;;;11.24;97.51;98310.38;108446;1284;22516;-69
2022/09/27 03:23:46;;;;;;;;;;;;;;;11.24;97.60;98306.89;108282;1284;22725;-69
2022/09/27 03:26:12;;;;;;;28.60;18.20;;;;;;;11.24;97.87;98307.10;107793;1281;1049124;-69
2022/09/27 03:30:41;;;;;;;23.50;17.50;;;;;;;11.24;97.65;98317.45;101790;1308;560743;-67
2022/09/27 03:33:08;;;;;;;28.40;19.40;;;;;;;11.25;97.96;98319.02;108282;1286;23855;-69
2022/09/27 03:35:41;;;;;;;25.70;18.80;;;;;;;11.27;97.76;98315.98;108275;1286;22506;-68
2022/09/27 03:38:08;;;;;;;28.80;21.00;;;;;;;11.27;97.87;98313.80;108208;1287;22517;-69
2022/09/27 03:40:35;;;;;;;32.70;22.50;;;;;;;11.29;98.02;98308.66;108135;1286;23386;-69
2022/09/27 03:43:02;;;;;;;;;;;;;;;11.30;97.96;98311.81;107428;1284;1188457;-67
2022/09/27 03:45:30;;;;;;;40.40;23.80;;;;;;;11.32;98.14;98308.95;108499;1284;22567;-65
2022/09/27 03:47:57;;;;;;;31.40;23.00;;;;;;;11.32;98.26;98307.09;108561;1283;22703;-65
2022/09/27 03:50:24;;;;;;;33.40;23.70;;;;;;;11.34;98.06;98306.91;108425;1283;22639;-65
2022/09/27 03:52:53;;;;;;;36.60;24.00;;;;;;;11.36;98.11;98305.02;108550;1284;22673;-65
2022/09/27 03:55:20;;;;;;;34.20;24.20;;;;;;;11.37;98.09;98301.37;108448;1284;22519;-65
2022/09/27 03:57:48;;;;;;;34.60;23.70;;;;;;;11.39;98.32;98300.59;108463;1284;22419;-64
2022/09/27 04:00:16;;;;;;;34.10;24.90;;;;;;;11.38;98.22;98305.23;108374;1285;22495;-65
2022/09/27 04:02:43;;;;;;;38.80;25.60;;;;;;;11.37;98.28;98302.85;108397;1284;23468;-65
2022/09/27 04:05:26;;;;;;;38.50;26.40;;;;;;;11.37;98.18;98307.31;108495;1285;22521;-64
2022/09/27 04:07:56;;;;;;;35.50;25.60;;;;;;;11.35;98.12;98303.52;108488;1284;22513;-65
2022/09/27 04:10:23;;;;;;;36.40;25.10;;;;;;;11.32;98.10;98300.81;108381;1285;22403;-65
2022/09/27 04:12:50;;;;;;;31.70;23.30;;;;;;;11.29;98.02;98299.42;108251;1285;22581;-65
2022/09/27 04:15:18;;;;;;;32.20;23.00;;;;;;;11.26;97.93;98299.41;108407;1283;22537;-65
2022/09/27 04:17:51;;;;;;;32.90;22.00;;;;;;;11.25;98.04;98303.54;108507;1284;22518;-65
2022/09/27 04:20:34;;;;;;;35.30;23.50;;;;;;;11.27;98.33;98301.75;108404;1284;22459;-65
2022/09/27 04:23:12;;;;;;;35.30;23.60;;;;;;;11.28;98.54;98300.81;108415;1284;22460;-65
2022/09/27 04:25:43;;;;;;;38.10;24.90;;;;;;;11.31;98.36;98302.09;108390;1285;22439;-65
2022/09/27 04:28:39;;;;;;;36.90;23.90;;;;;;;11.30;98.45;98296.53;108264;1285;22507;-65
2022/09/27 04:31:07;;;;;;;35.40;25.30;;;;;;;11.31;98.66;98294.40;108507;1284;22529;-65
2022/09/27 04:33:37;;;;;;;37.80;25.30;;;;;;;11.33;98.79;98287.77;108526;1284;22445;-65
2022/09/27 04:36:25;;;;;;;32.80;24.20;;;;;;;11.35;98.63;98288.13;108391;1284;23208;-63
2022/09/27 04:39:02;;;;;;;36.00;25.10;;;;;;;11.40;98.87;98283.88;108502;1284;23521;-67
2022/09/27 04:41:35;;;;;;;35.30;25.20;;;;;;;11.44;98.96;98278.73;104210;1285;24017;-64
2022/09/27 04:44:03;;;;;;;38.20;26.50;;;;;;;11.45;99.04;98279.27;104194;1285;22553;-63
2022/09/27 04:46:31;;;;;;;37.40;25.20;;;;;;;11.47;98.85;98278.20;108476;1284;23044;-64
2022/09/27 04:48:59;;;;;;;37.80;26.20;;;;;;;11.50;99.06;98272.05;108481;1284;22419;-64
2022/09/27 04:51:27;;;;;;;37.30;26.20;;;;;;;11.51;98.98;98260.86;108365;1285;23185;-65
2022/09/27 04:53:54;;;;;;;;;;;;;;;11.53;98.94;98252.88;108399;1284;22580;-65
2022/09/27 04:56:21;;;;;;;40.60;27.30;;;;;;;11.53;99.05;98254.95;108238;1285;22414;-65
2022/09/27 04:58:48;;;;;;;43.80;27.80;;;;;;;11.53;98.90;98249.66;108340;1285;22446;-65
2022/09/27 05:01:15;;;;;;;39.90;28.30;;;;;;;11.53;98.99;98247.69;108514;1284;22445;-65
2022/09/27 05:04:00;;;;;;;37.10;25.90;;;;;;;11.50;99.00;98240.46;108506;1284;22461;-65
2022/09/27 05:06:27;;;;;;;43.00;28.10;;;;;;;11.50;98.86;98239.81;108297;1285;22368;-65
2022/09/27 05:08:57;;;;;;;40.30;28.40;;;;;;;11.49;98.90;98241.95;108337;1284;22483;-65
2022/09/27 05:11:41;;;;;;;43.40;28.30;;;;;;;11.49;98.94;98241.95;108306;1285;22575;-65
2022/09/27 05:14:29;;;;;;;38.70;27.30;;;;;;;11.47;98.96;98240.89;108520;1284;23205;-66
2022/09/27 05:17:17;;;;;;;42.90;30.10;;;;;;;11.47;99.07;98240.63;108298;1285;22574;-66
2022/09/27 05:20:09;;;;;;;44.40;28.60;;;;;;;11.48;99.06;98238.86;108494;1284;22473;-65
2022/09/27 05:22:43;;;;;;;45.40;30.50;;;;;;;11.48;99.07;98237.05;108313;1285;22547;-64
2022/09/27 05:25:09;;;;;;;49.10;31.80;;;;;;;11.49;99.48;98242.55;108235;1286;22522;-64
2022/09/27 05:27:38;;;;;;;42.30;27.70;;;;;;;11.50;99.14;98242.00;108264;1285;22548;-64
2022/09/27 05:30:06;;;;;;;;;;;;;;;11.51;99.42;98249.68;108468;1285;22472;-65
2022/09/27 05:32:42;;;;;;;44.80;30.50;;;;;;;11.51;99.36;98255.91;108495;1282;23253;-64
2022/09/27 05:35:27;;;;;;;43.60;31.00;;;;;;;11.52;99.30;98258.66;108332;1284;22483;-64
2022/09/27 05:37:56;;;;;;;51.40;31.50;;;;;;;11.52;99.35;98256.86;108588;1282;22289;-65
2022/09/27 05:40:24;;;;;;;41.60;29.50;;;;;;;11.53;99.46;98256.05;108596;1281;23496;-64
2022/09/27 05:43:08;;;;;;;40.50;29.90;;;;;;;11.54;99.70;98257.81;108745;1281;22525;-65
2022/09/27 05:45:35;;;;;;;45.50;30.40;;;;;;;11.57;99.85;98258.30;108567;1282;23228;-65
2022/09/27 05:48:07;;;;;;;45.10;30.50;;;;;;;11.59;99.81;98258.11;108573;1282;23394;-65
2022/09/27 05:50:39;;;;;;;48.00;31.20;;;;;;;11.61;99.76;98262.29;108587;1282;22576;-65
2022/09/27 05:53:06;;;;;;;41.50;29.30;;;;;;;11.63;99.74;98260.73;108589;1281;22540;-65
2022/09/27 05:55:32;;;;;;;49.10;30.70;;;;;;;11.66;99.72;98257.91;108718;1281;22409;-65
2022/09/27 05:58:04;;;;;;;48.50;31.30;;;;;;;11.69;99.88;98259.39;108752;1281;22519;-64
2022/09/27 06:00:44;;;;;;;56.70;33.30;;;;;;;11.73;99.81;98257.47;108627;1282;22448;-64
2022/09/27 06:03:30;;;;;;;45.60;30.70;;;;;;;11.74;99.79;98255.70;109072;1279;22501;-64
2022/09/27 06:06:14;;;;;;;51.20;32.20;;;;;;;11.76;99.89;98256.09;109082;1279;22491;-64
2022/09/27 06:08:48;;;;;;;50.50;32.30;;;;;;;11.79;99.90;98258.40;108884;1279;22485;-66
2022/09/27 06:11:17;;;;;;;50.80;32.50;;;;;;;11.84;99.86;98260.55;105409;1279;23824;-66
2022/09/27 06:13:46;;;;;;;50.60;34.60;;;;;;;11.87;99.82;98254.00;109047;1279;23458;-65
2022/09/27 06:16:13;;;;;;;50.00;34.30;;;;;;;11.88;99.81;98249.08;108789;1280;23548;-65
2022/09/27 06:18:42;;;;;;;44.30;32.30;;;;;;;11.90;99.82;98250.91;108931;1279;22484;-65
2022/09/27 06:21:12;;;;;;;52.00;32.90;;;;;;;11.90;99.79;98248.39;108895;1279;22490;-66
2022/09/27 06:23:40;;;;;;;45.20;31.70;;;;;;;11.91;99.69;98248.54;108970;1279;23385;-65
2022/09/27 06:26:19;;;;;;;49.70;32.50;;;;;;;11.92;99.76;98247.77;108928;1279;22455;-66
2022/09/27 06:29:08;;;;;;;48.50;31.70;;;;;;;11.94;99.76;98249.10;108712;1279;22514;-66
2022/09/27 06:31:39;;;;;;;50.50;30.00;;;;;;;11.94;99.84;98252.60;108893;1279;22409;-66
2022/09/27 06:34:44;;;;;;;53.70;30.30;;;;;;;11.96;99.88;98252.41;108796;1279;22592;-65
2022/09/27 06:37:11;;;;;;;;;;;;;;;11.97;99.80;98254.59;108924;1279;22449;-65
2022/09/27 06:39:37;;;;;;;57.80;30.90;;;;;;;12.00;99.89;98253.73;108158;1279;24198;-64
2022/09/27 06:42:30;;;;;;;63.90;32.20;;;;;;;12.03;100.00;98254.29;104398;1279;24169;-66
2022/09/27 06:45:05;;;;;;;63.60;31.10;;;;;;;12.05;99.99;98258.09;104756;1279;24010;-66
2022/09/27 06:47:50;;;;;;;58.30;30.50;;;;;;;12.06;100.00;98262.13;109093;1278;23281;-65
2022/09/27 06:50:25;;;;;;;60.40;31.60;;;;;;;12.07;100.00;98261.71;108889;1279;22455;-65
2022/09/27 06:52:51;;;;;;;65.00;30.70;;;;;;;12.09;100.00;98253.72;109093;1279;22611;-64
2022/09/27 06:55:19;;;;;;;66.50;30.80;;;;;;;12.10;100.00;98251.29;108868;1279;23216;-64
2022/09/27 07:00:31;;;;;;;71.60;34.50;;;;;;;12.13;100.00;98243.35;108915;1279;22449;-64
2022/09/27 07:03:30;;;;;;;67.90;31.80;;;;;;;12.14;100.00;98240.89;108965;1279;22461;-64
2022/09/27 07:06:19;;;;;;;61.80;31.60;;;;;;;12.16;100.00;98239.55;108951;1279;23393;-65
2022/09/27 07:08:51;;;;;;;62.80;32.00;;;;;;;12.16;100.00;98236.81;108911;1279;22541;-65
2022/09/27 07:11:19;;;;;;;69.90;33.80;;;;;;;12.16;100.00;98243.15;108969;1279;22554;-65
2022/09/27 07:13:46;;;;;;;61.90;32.60;;;;;;;12.18;100.00;98249.13;109003;1279;23291;-65
2022/09/27 07:16:14;;;;;;;61.80;32.30;;;;;;;12.20;100.00;98250.80;108835;1279;22437;-66
2022/09/27 07:18:42;;;;;;;72.00;31.50;;;;;;;12.21;100.00;98255.58;108912;1279;22553;-67
2022/09/27 07:21:09;;;;;;;66.00;33.60;;;;;;;12.23;100.00;98255.83;108680;1279;22330;-66
2022/09/27 07:23:37;;;;;;;67.10;33.40;;;;;;;12.26;100.00;98257.06;108962;1279;23243;-67
2022/09/27 07:26:09;;;;;;;60.50;32.20;;;;;;;12.28;100.00;98251.89;108894;1279;22449;-67
2022/09/27 07:28:36;;;;;;;70.90;32.80;;;;;;;12.30;100.00;98247.16;108697;1279;23132;-68
2022/09/27 07:31:03;;;;;;;64.10;32.70;;;;;;;12.32;100.00;98243.30;108812;1279;22457;-64
2022/09/27 07:33:30;;;;;;;77.90;35.60;;;;;;;12.34;100.00;98235.56;108790;1279;22388;-64
2022/09/27 07:35:58;;;;;;;75.50;33.60;;;;;;;12.38;100.00;98235.83;108820;1281;22539;-64
2022/09/27 07:38:25;;;;;;;64.40;29.70;;;;;;;12.42;100.00;98239.30;108890;1279;22431;-65
2022/09/27 07:40:52;;;;;;;67.60;32.80;;;;;;;12.45;100.00;98236.35;109379;1273;22214;-65
2022/09/27 07:43:19;;;;;;;59.50;31.40;;;;;;;12.48;100.00;98241.49;109374;1274;23722;-65
2022/09/27 07:45:46;;;;;;;70.40;33.10;;;;;;;12.50;100.00;98238.98;109329;1274;23012;-64
2022/09/27 07:48:25;;;;;;;57.10;29.00;;;;;;;12.53;100.00;98230.09;109361;1274;22971;-64
2022/09/27 07:51:17;;;;;;;56.40;28.10;;;;;;;12.56;100.00;98225.09;109180;1274;22553;-64
2022/09/27 07:53:55;;;;;;;;;;;;;;;12.56;100.00;98218.94;109503;1273;23827;-64
2022/09/27 07:56:49;;;;;;;43.30;23.90;;;;;;;12.56;100.00;98218.33;109195;1273;22472;-65
2022/09/27 07:59:17;;;;;;;43.90;25.30;;;;;;;12.56;100.00;98216.74;109384;1273;22553;-65
2022/09/27 08:01:45;;;;;;;41.70;24.20;;;;;;;12.56;100.00;98215.20;109461;1273;22528;-65
2022/09/27 08:04:12;;;;;;;51.10;26.60;;;;;;;12.57;100.00;98223.48;109452;1274;22542;-65
2022/09/27 08:06:38;;;;;;;49.10;26.00;;;;;;;12.59;100.00;98223.25;109514;1273;22615;-65
2022/09/27 08:09:06;;;;;;;47.40;25.70;;;;;;;12.61;100.00;98224.19;109496;1273;22465;-65
2022/09/27 08:11:32;;;;;;;49.80;25.50;;;;;;;12.63;100.00;98222.95;109394;1274;22441;-65
2022/09/27 08:14:00;;;;;;;41.40;25.00;;;;;;;12.66;100.00;98214.86;109407;1273;23266;-65
2022/09/27 08:16:32;;;;;;;42.60;23.60;;;;;;;12.68;100.00;98213.57;109367;1274;22392;-65
2022/09/27 08:19:18;;;;;;;46.40;26.60;;;;;;;12.72;100.00;98217.69;109493;1273;22480;-65
2022/09/27 08:22:06;;;;;;;42.90;23.80;;;;;;;12.74;100.00;98215.89;109400;1274;23245;-63
2022/09/27 08:24:59;;;;;;;42.30;23.30;;;;;;;12.78;100.00;98218.02;109414;1274;22467;-64
2022/09/27 08:27:59;;;;;;;42.40;23.60;;;;;;;12.81;100.00;98216.59;109402;1274;22452;-63
2022/09/27 08:30:40;;;;;;;36.50;22.10;;;;;;;12.84;100.00;98210.56;109134;1274;22427;-64
2022/09/27 08:33:07;;;;;;;32.40;21.50;;;;;;;12.86;100.00;98205.96;109281;1274;23167;-64
2022/09/27 08:35:35;;;;;;;30.10;20.80;;;;;;;12.88;100.00;98213.48;109265;1274;23175;-63
2022/09/27 08:38:02;;;;;;;30.20;20.30;;;;;;;12.90;100.00;98219.95;109249;1274;22594;-63
2022/09/27 08:40:50;;;;;;;30.50;19.10;;;;;;;12.91;100.00;98218.06;109316;1274;23384;-65
2022/09/27 08:43:22;;;;;;;33.10;20.80;;;;;;;12.95;100.00;98215.36;109409;1274;22524;-64
2022/09/27 08:46:12;;;;;;;27.40;20.40;;;;;;;12.98;100.00;98210.27;109425;1274;23283;-65
2022/09/27 08:48:39;;;;;;;27.80;18.70;;;;;;;13.02;100.00;98212.14;109268;1274;22431;-66
2022/09/27 08:51:05;;;;;;;;;;;;;;;13.05;100.00;98212.46;109332;1274;22474;-66
2022/09/27 08:53:37;;;;;;;25.10;18.40;;;;;;;13.08;100.00;98212.57;109377;1274;22421;-66
2022/09/27 08:56:06;;;;;;;25.80;18.70;;;;;;;13.12;100.00;98214.52;109239;1274;22479;-67
2022/09/27 08:58:44;;;;;;;26.10;18.60;;;;;;;13.15;100.00;98213.03;109377;1274;22245;-66
2022/09/27 09:01:17;;;;;;;28.20;17.40;;;;;;;13.18;100.00;98208.98;109344;1274;23505;-66
2022/09/27 09:04:06;;;;;;;27.80;19.60;;;;;;;13.21;100.00;98204.13;109354;1274;22914;-68
2022/09/27 09:06:39;;;;;;;;;;;;;;;13.23;100.00;98198.29;109324;1274;23198;-67
2022/09/27 09:09:18;;;;;;;64.60;43.90;;;;;;;13.25;100.00;98195.55;109455;1274;22512;-68
2022/09/27 09:15:17;;;;;;;36.10;25.80;;;;;;;13.30;100.00;98202.20;109346;1274;23208;-67
2022/09/27 09:18:05;;;;;;;38.00;25.30;;;;;;;13.34;100.00;98194.91;109338;1274;22450;-67
2022/09/27 09:21:14;;;;;;;21.60;17.70;;;;;;;13.38;100.00;98197.77;109318;1274;22491;-68
2022/09/27 09:23:56;;;;;;;20.90;13.60;;;;;;;13.43;100.00;98201.14;109294;1274;22665;-68
2022/09/27 09:26:37;;;;;;;14.30;12.70;;;;;;;13.48;100.00;98197.55;109460;1273;22546;-68
2022/09/27 09:29:29;;;;;;;18.20;12.80;;;;;;;13.52;100.00;98191.48;109185;1274;22558;-64
2022/09/27 09:32:08;;;;;;;14.40;13.00;;;;;;;13.57;100.00;98197.75;109299;1274;22474;-64
2022/09/27 09:34:46;;;;;;;16.60;12.50;;;;;;;13.61;100.00;98200.78;109301;1274;22448;-67
2022/09/27 09:37:18;;;;;;;15.90;13.40;;;;;;;13.64;100.00;98205.32;109347;1274;22396;-65
2022/09/27 09:40:01;;;;;;;15.50;12.90;;;;;;;13.66;100.00;98201.11;108069;1274;22577;-63
2022/09/27 09:43:06;;;;;;;14.50;13.00;;;;;;;13.68;100.00;98195.59;105003;1275;22580;-63
2022/09/27 09:45:35;;;;;;;17.00;13.40;;;;;;;13.70;100.00;98194.94;105081;1274;23971;-62
2022/09/27 09:48:15;;;;;;;18.20;14.40;;;;;;;13.72;100.00;98198.15;105085;1275;22715;-62
2022/09/27 09:50:51;;;;;;;14.00;12.40;;;;;;;13.73;100.00;98194.90;105173;1273;24108;-62
2022/09/27 09:53:25;;;;;;;15.50;12.60;;;;;;;13.74;100.00;98193.46;109469;1273;22551;-63
2022/09/27 09:55:56;;;;;;;15.00;12.70;;;;;;;13.75;100.00;98196.44;109346;1274;22699;-63
2022/09/27 09:58:27;;;;;;;15.80;13.80;;;;;;;13.77;100.00;98202.70;109287;1274;22432;-63
2022/09/27 10:00:59;;;;;;;17.90;14.00;;;;;;;13.76;100.00;98195.55;109401;1274;23164;-64
2022/09/27 10:03:26;;;;;;;18.30;13.70;;;;;;;13.75;100.00;98192.67;109337;1274;23007;-63
2022/09/27 10:05:53;;;;;;;18.70;13.30;;;;;;;13.76;100.00;98189.63;109386;1274;22455;-63
2022/09/27 10:08:20;;;;;;;;;;;;;;;13.78;100.00;98188.16;109395;1274;22490;-63
2022/09/27 10:10:50;;;;;;;18.70;15.10;;;;;;;13.80;100.00;98185.83;109358;1274;22246;-63
2022/09/27 10:13:39;;;;;;;29.40;20.90;;;;;;;13.80;100.00;98185.11;109168;1274;22328;-63
2022/09/27 10:16:11;;;;;;;26.40;20.50;;;;;;;13.78;100.00;98184.39;109508;1273;23242;-63
2022/09/27 10:18:40;;;;;;;27.90;19.80;;;;;;;13.77;100.00;98184.41;109354;1274;22504;-63
2022/09/27 10:21:12;;;;;;;31.20;22.10;;;;;;;13.77;100.00;98184.80;109523;1273;22397;-64
2022/09/27 10:24:00;;;;;;;35.00;23.10;;;;;;;13.77;100.00;98190.76;109196;1274;23330;-64
2022/09/27 10:26:42;;;;;;;33.50;22.20;;;;;;;13.78;100.00;98187.25;109423;1273;22464;-64
2022/09/27 10:29:18;;;;;;;31.50;21.80;;;;;;;13.76;100.00;98186.08;109345;1274;23107;-64
2022/09/27 10:31:47;;;;;;;34.70;24.20;;;;;;;13.76;100.00;98188.49;109456;1273;22439;-63
2022/09/27 10:34:23;;;;;;;30.80;21.50;;;;;;;13.76;100.00;98180.12;109228;1274;22434;-64
2022/09/27 10:37:06;;;;;;;31.20;23.10;;;;;;;13.76;100.00;98173.06;109430;1273;23752;-64
2022/09/27 10:39:34;;;;;;;28.60;22.70;;;;;;;13.76;100.00;98175.23;109435;1273;23222;-64
2022/09/27 10:42:01;;;;;;;34.00;22.20;;;;;;;13.79;100.00;98174.58;109420;1274;23095;-66
2022/09/27 10:44:36;;;;;;;30.10;23.40;;;;;;;13.81;100.00;98175.85;109368;1273;22447;-64
2022/09/27 10:47:18;;;;;;;;;;;;;;;13.79;100.00;98181.17;109356;1274;22546;-64
2022/09/27 10:50:05;;;;;;;31.10;21.90;;;;;;;13.75;100.00;98184.08;109301;1274;22560;-63
2022/09/27 10:52:41;;;;;;;28.20;21.90;;;;;;;13.71;100.00;98180.56;109306;1273;23107;-63
2022/09/27 10:55:26;;;;;;;27.10;20.40;;;;;;;13.70;100.00;98179.60;109424;1273;22512;-63
2022/09/27 10:57:54;;;;;;;28.30;21.90;;;;;;;13.71;100.00;98178.21;109499;1273;22623;-63
2022/09/27 11:00:23;;;;;;;29.80;22.00;;;;;;;13.71;100.00;98181.60;109389;1274;22429;-64
2022/09/27 11:02:58;;;;;;;23.70;19.60;;;;;;;13.70;100.00;98179.38;109344;1273;22489;-65
2022/09/27 11:05:30;;;;;;;28.40;19.00;;;;;;;13.72;100.00;98172.65;109325;1274;22516;-63
2022/09/27 11:07:58;;;;;;;26.70;19.20;;;;;;;13.75;100.00;98161.30;109511;1273;23245;-66
2022/09/27 11:10:41;;;;;;;23.40;18.90;;;;;;;13.78;100.00;98157.50;109379;1274;22409;-64
2022/09/27 11:13:11;;;;;;;23.70;18.70;;;;;;;13.80;100.00;98158.45;109429;1274;22512;-64
2022/09/27 11:15:56;;;;;;;24.20;19.30;;;;;;;13.82;100.00;98159.56;109430;1274;23207;-64
2022/09/27 11:18:33;;;;;;;24.20;19.00;;;;;;;13.85;100.00;98152.19;109348;1274;22843;-64
2022/09/27 11:21:09;;;;;;;24.90;20.70;;;;;;;13.87;100.00;98146.16;109387;1273;22447;-64
2022/09/27 11:23:54;;;;;;;23.10;19.40;;;;;;;13.87;100.00;98140.73;109429;1274;23187;-65
2022/09/27 11:26:27;;;;;;;26.50;22.80;;;;;;;13.86;100.00;98124.98;109233;1274;22466;-65
2022/09/27 11:28:57;;;;;;;37.40;24.20;;;;;;;13.85;100.00;98116.83;109294;1274;22470;-65
2022/09/27 11:31:45;;;;;;;29.80;22.50;;;;;;;13.83;100.00;98123.55;109366;1274;22439;-64
2022/09/27 11:34:37;;;;;;;28.80;24.40;;;;;;;13.86;100.00;98130.09;109404;1273;23605;-64
2022/09/27 11:37:45;;;;;;;99.80;62.60;;;;;;;13.92;100.00;98135.15;109501;1273;23299;-64
2022/09/27 11:40:24;;;;;;;45.10;31.70;;;;;;;13.96;100.00;98136.42;107147;1275;25402;-62
2022/09/27 11:43:00;;;;;;;57.50;35.30;;;;;;;14.00;100.00;98138.32;109387;1273;23280;-66
2022/09/27 11:45:30;;;;;;;77.50;44.70;;;;;;;14.01;100.00;98135.06;109403;1274;22576;-64
2022/09/27 11:48:38;;;;;;;93.80;47.00;;;;;;;13.99;100.00;98132.12;109415;1274;22523;-60
2022/09/27 11:51:35;;;;;;;96.80;50.10;;;;;;;13.99;100.00;98137.19;109478;1273;22539;-65
2022/09/27 11:54:15;;;;;;;89.90;49.40;;;;;;;13.93;100.00;98143.52;109329;1273;22440;-66
2022/09/27 11:56:59;;;;;;;95.20;50.00;;;;;;;13.88;100.00;98144.27;109372;1274;23203;-66
2022/09/27 11:59:36;;;;;;;90.40;49.80;;;;;;;13.86;100.00;98138.20;109353;1273;22495;-68